WXM80 ListenWXM80 Stop

You find our weather info also at:

UK Metoffice

WeatherCloud

Weather Underground

Northeastern Weather Network

AWEKAS

Citizen Weather Observer Program (CWOP)

HAMweather, WeatherForYou, PWS Weather


Weather Underground History page Text

Daily Summary for November 5, 2017 Units:  Metric    English   Both
« Previous Day
Next Day »
Daily Weekly Monthly Yearly Custom
  High: Low: Average:
Temperature: 15.8 °C 10.7 °C 13.7 °C
Dew Point: 15.3 °C 8.6 °C 12.3 °C
Humidity: 97 % 80 % 92 %
Wind Speed: 5.8 km/h 0 km/h 1.1 km/h
Wind Gust: 14.8 km/h - -
Wind:- - ESE
Pressure: 1028 hPa 1008.7 hPa -
Precipitation: 0.76 mm    
Historical Graphs
 
 
Tabular Data for November 5, 2017
Time Temperature Dew Point Pressure Wind Wind Speed Wind Gust Humidity Rainfall Rate (Hourly)
00:01 11.4 °C 8.6 °C 1027.7 hPa East 2.4 km/h 3.7 km/h 83 % 0 mm
00:06 11.4 °C 8.7 °C 1027.3 hPa East 1.8 km/h 5.6 km/h 83 % 0 mm
00:11 11.5 °C 8.7 °C 1027.3 hPa East 2.6 km/h 5.6 km/h 83 % 0 mm
00:16 11.6 °C 8.7 °C 1027.7 hPa East 2.1 km/h 4.8 km/h 82 % 0 mm
00:21 11.7 °C 8.7 °C 1027.3 hPa East 5.8 km/h 7.4 km/h 82 % 0 mm
00:26 11.7 °C 8.7 °C 1027.3 hPa ESE 3.7 km/h 8 km/h 82 % 0 mm
00:31 11.8 °C 8.8 °C 1027.3 hPa East 2.9 km/h 4.8 km/h 82 % 0 mm
00:36 11.8 °C 8.8 °C 1027.7 hPa East 3.7 km/h 4.8 km/h 82 % 0 mm
00:41 11.9 °C 8.7 °C 1027.7 hPa East 1.9 km/h 3.7 km/h 81 % 0 mm
00:46 11.9 °C 8.8 °C 1027.3 hPa East 3.7 km/h 9.3 km/h 81 % 0 mm
00:51 12 °C 8.8 °C 1027.7 hPa East 3.1 km/h 9.7 km/h 81 % 0 mm
00:56 12 °C 8.8 °C 1027.7 hPa SE 3.2 km/h 5.6 km/h 81 % 0 mm
01:02 12.1 °C 8.9 °C 1027.7 hPa ESE 0.6 km/h 3.7 km/h 81 % 0 mm
01:07 12.1 °C 8.9 °C 1027.7 hPa East 1.6 km/h 5.6 km/h 81 % 0 mm
01:12 12.1 °C 8.9 °C 1028 hPa East 1.6 km/h 5.6 km/h 81 % 0 mm
01:17 12.1 °C 8.9 °C 1028 hPa East 0.2 km/h 3.7 km/h 81 % 0 mm
01:22 12.1 °C 8.7 °C 1027.7 hPa East 0.2 km/h 1.9 km/h 80 % 0 mm
01:27 12.1 °C 8.7 °C 1027.7 hPa East 2.7 km/h 5.6 km/h 80 % 0 mm
01:32 12.1 °C 8.9 °C 1028 hPa East 1.8 km/h 3.7 km/h 81 % 0 mm
01:37 12.1 °C 8.7 °C 1028 hPa East 2.3 km/h 3.7 km/h 80 % 0 mm
01:42 12.1 °C 8.7 °C 1028 hPa ESE 3.9 km/h 9.3 km/h 80 % 0 mm
01:47 12 °C 8.7 °C 1028 hPa SE 1 km/h 5.6 km/h 80 % 0 mm
01:52 12 °C 8.7 °C 1028 hPa Calm   1.9 km/h 80 % 0 mm
01:57 11.9 °C 8.6 °C 1028 hPa SE 0.3 km/h 3.7 km/h 80 % 0 mm
01:02 11.9 °C 8.8 °C 1027.7 hPa Calm     81 % 0 mm
01:07 11.9 °C 9.2 °C 1027.7 hPa East 0.8 km/h 1.9 km/h 83 % 0 mm
01:12 11.8 °C 9.2 °C 1027 hPa East 3.1 km/h 5.6 km/h 84 % 0 mm
01:15 11.8 °C 9.3 °C 1027 hPa ENE 4 km/h 7.4 km/h 85 % 0 mm
01:20 11.6 °C 9.3 °C 1027 hPa East 3.4 km/h 5.6 km/h 86 % 0 mm
01:25 11.4 °C 9.3 °C 1027 hPa East 3.9 km/h 7.4 km/h 87 % 0 mm
01:30 11.3 °C 9.4 °C 1027 hPa ESE 3.7 km/h 5.6 km/h 88 % 0 mm
01:35 11.2 °C 9.3 °C 1027 hPa ESE 2.9 km/h 7.4 km/h 88 % 0 mm
01:40 11.2 °C 9.3 °C 1027 hPa SE 2.4 km/h 8 km/h 88 % 0 mm
01:45 11.1 °C 9.2 °C 1026.6 hPa East 2.7 km/h 5.6 km/h 88 % 0 mm
01:50 11.1 °C 9.3 °C 1026.6 hPa East 1.9 km/h 5.6 km/h 89 % 0 mm
01:55 11.1 °C 9.3 °C 1026.3 hPa East 2.9 km/h 5.6 km/h 89 % 0 mm
02:01 11 °C 9.3 °C 1026.6 hPa East 1.9 km/h 5.6 km/h 89 % 0 mm
02:06 11 °C 9.3 °C 1026.6 hPa East 1.6 km/h 12.9 km/h 89 % 0 mm
02:11 10.9 °C 9.4 °C 1026.3 hPa East 4.8 km/h 9.7 km/h 90 % 0 mm
02:16 10.9 °C 9.4 °C 1026 hPa East 3.2 km/h 4.8 km/h 90 % 0 mm
02:21 10.9 °C 9.4 °C 1025.6 hPa ESE 5.8 km/h 9.3 km/h 90 % 0 mm
02:26 10.9 °C 9.4 °C 1025.6 hPa East 4.8 km/h 11.3 km/h 90 % 0 mm
02:31 10.9 °C 9.4 °C 1025.3 hPa ESE 4.7 km/h 9.3 km/h 90 % 0 mm
02:36 10.9 °C 9.4 °C 1025.3 hPa East 3.2 km/h 11.3 km/h 90 % 0 mm
02:41 10.9 °C 9.4 °C 1025.6 hPa East 1.6 km/h 6.4 km/h 90 % 0 mm
02:46 10.9 °C 9.4 °C 1025.6 hPa East 1.6 km/h 4.8 km/h 90 % 0 mm
02:51 10.9 °C 9.4 °C 1025.6 hPa ESE 1.6 km/h 9.7 km/h 90 % 0 mm
02:56 10.9 °C 9.4 °C 1025.6 hPa ESE 1.6 km/h 6.4 km/h 90 % 0 mm
03:01 10.9 °C 9.3 °C 1026 hPa ESE 4.7 km/h 7.4 km/h 90 % 0 mm
03:06 10.9 °C 9.3 °C 1026 hPa SE 1.6 km/h 5.6 km/h 90 % 0 mm
03:11 10.9 °C 9.3 °C 1026 hPa Calm   1.6 km/h 90 % 0 mm
03:16 10.8 °C 9.3 °C 1026 hPa SE 0.2 km/h 1.9 km/h 90 % 0 mm
03:21 10.8 °C 9.2 °C 1026 hPa Calm   1.6 km/h 90 % 0 mm
03:26 10.7 °C 9.2 °C 1026 hPa ESE 1.6 km/h 4.8 km/h 90 % 0 mm
03:31 10.7 °C 9.2 °C 1025.6 hPa East 1.6 km/h 3.2 km/h 90 % 0 mm
03:36 10.7 °C 9.1 °C 1025.6 hPa East 1.6 km/h 3.2 km/h 90 % 0 mm
03:41 10.7 °C 9.1 °C 1026 hPa Calm   3.2 km/h 90 % 0 mm
03:46 10.7 °C 9.1 °C 1026 hPa Calm   3.2 km/h 90 % 0 mm
03:51 10.7 °C 9.1 °C 1026 hPa ESE 1.6 km/h 3.2 km/h 90 % 0 mm
03:56 10.7 °C 9.1 °C 1026 hPa Calm   1.6 km/h 90 % 0 mm
04:01 10.7 °C 9.2 °C 1026 hPa ESE 0.6 km/h 1.9 km/h 90 % 0 mm
04:06 10.7 °C 9.2 °C 1026 hPa ESE 1 km/h 3.7 km/h 90 % 0 mm
04:11 10.8 °C 9.2 °C 1026 hPa East 2.7 km/h 5.6 km/h 90 % 0 mm
04:16 10.8 °C 9.3 °C 1025.6 hPa ENE 2.1 km/h 3.7 km/h 90 % 0 mm
04:21 10.9 °C 9.5 °C 1025.6 hPa ENE 3.2 km/h 5.6 km/h 91 % 0 mm
04:26 10.9 °C 9.6 °C 1025.6 hPa ENE 3.7 km/h 7.4 km/h 91 % 0 mm
04:31 11 °C 9.4 °C 1025.6 hPa ESE 4.5 km/h 7.4 km/h 90 % 0 mm
04:36 11.1 °C 9.6 °C 1025.6 hPa ENE 2.7 km/h 5.6 km/h 90 % 0 mm
04:41 11.1 °C 9.6 °C 1025.6 hPa East 2.9 km/h 5.6 km/h 90 % 0 mm
04:46 11.2 °C 9.6 °C 1025.6 hPa East 2.4 km/h 3.7 km/h 90 % 0 mm
04:51 11.2 °C 9.7 °C 1025.6 hPa East 2.1 km/h 3.7 km/h 90 % 0 mm
04:56 11.3 °C 9.7 °C 1026 hPa East 2.1 km/h 4.8 km/h 90 % 0 mm
05:01 11.3 °C 9.8 °C 1026 hPa ESE 0.6 km/h 3.7 km/h 90 % 0 mm
05:06 11.3 °C 9.8 °C 1026 hPa Calm   3.7 km/h 90 % 0 mm
05:11 11.4 °C 9.8 °C 1026 hPa SSE 1.4 km/h 4.8 km/h 90 % 0 mm
05:13 11.4 °C 9.8 °C 1026 hPa ESE 0.6 km/h 1.9 km/h 90 % 0 mm
05:18 11.4 °C 9.9 °C 1026.3 hPa ESE 2.4 km/h 5.6 km/h 90 % 0 mm
05:23 11.5 °C 9.7 °C 1026.3 hPa Calm   1.9 km/h 89 % 0 mm
05:28 11.6 °C 9.8 °C 1026.3 hPa ENE 1.4 km/h 3.7 km/h 89 % 0 mm
05:33 11.6 °C 9.9 °C 1026.3 hPa East 0.5 km/h 3.7 km/h 90 % 0 mm
05:38 11.6 °C 10 °C 1026.3 hPa East 1 km/h 3.2 km/h 90 % 0 mm
05:43 11.6 °C 9.8 °C 1026.3 hPa ESE 1.4 km/h 3.7 km/h 89 % 0 mm
05:48 11.7 °C 9.9 °C 1026.3 hPa Calm     89 % 0 mm
05:58 11.7 °C 9.9 °C 1026.3 hPa ESE 0.3 km/h 3.7 km/h 89 % 0 mm
06:03 11.7 °C 9.9 °C 1026.3 hPa ESE 0.8 km/h 3.7 km/h 89 % 0 mm
06:08 11.7 °C 9.9 °C 1026.3 hPa ESE 0.3 km/h 3.7 km/h 89 % 0 mm
06:13 11.7 °C 9.9 °C 1026.3 hPa ESE 0.6 km/h 3.2 km/h 89 % 0 mm
06:18 11.7 °C 9.9 °C 1026.3 hPa ESE 1.9 km/h 3.7 km/h 89 % 0 mm
06:23 11.7 °C 9.9 °C 1026.3 hPa ESE 1.6 km/h 3.2 km/h 89 % 0 mm
06:28 11.8 °C 10 °C 1026.3 hPa ESE 0.8 km/h 3.7 km/h 89 % 0 mm
06:33 11.8 °C 10 °C 1026 hPa ESE 2.4 km/h 5.6 km/h 89 % 0 mm
06:38 11.8 °C 10 °C 1026 hPa ESE 1.4 km/h 3.7 km/h 89 % 0 mm
06:43 11.8 °C 10 °C 1026 hPa ESE 2.4 km/h 5.6 km/h 89 % 0 mm
06:48 11.8 °C 10.1 °C 1026 hPa ESE 1.3 km/h 3.7 km/h 89 % 0 mm
06:53 11.8 °C 10.1 °C 1026 hPa ESE 1.1 km/h 3.7 km/h 89 % 0 mm
06:58 11.9 °C 10.1 °C 1026 hPa ESE 1.6 km/h 3.7 km/h 89 % 0 mm
07:03 11.9 °C 10.1 °C 1026 hPa ESE 1.9 km/h 3.7 km/h 89 % 0 mm
07:08 11.9 °C 10.2 °C 1026 hPa ESE 2.1 km/h 3.7 km/h 89 % 0 mm
07:13 12 °C 10.2 °C 1025.6 hPa ESE 1.3 km/h 1.9 km/h 89 % 0 mm
07:18 12 °C 10.2 °C 1025.6 hPa ESE 0.8 km/h 1.9 km/h 89 % 0 mm
07:23 12.1 °C 10.1 °C 1026 hPa ESE 2.4 km/h 5.6 km/h 88 % 0 mm
07:28 12.2 °C 10.2 °C 1025.6 hPa East 0.3 km/h 1.9 km/h 88 % 0 mm
07:33 12.2 °C 10.3 °C 1025.6 hPa East 0.8 km/h 3.7 km/h 88 % 0 mm
07:39 12.2 °C 10.3 °C 1025.6 hPa East 0.8 km/h 3.7 km/h 88 % 0 mm
07:44 12.3 °C 10.4 °C 1025.6 hPa East 2.4 km/h 5.6 km/h 88 % 0 mm
07:49 12.3 °C 10.4 °C 1026 hPa ESE 1.6 km/h 5.6 km/h 88 % 0 mm
07:54 12.4 °C 10.5 °C 1025.6 hPa ESE 1 km/h 3.7 km/h 88 % 0 mm
07:59 12.5 °C 10.6 °C 1025.6 hPa Calm     88 % 0 mm
08:04 12.6 °C 10.6 °C 1025.6 hPa East 0.2 km/h 1.9 km/h 88 % 0 mm
08:09 12.6 °C 10.7 °C 1025.6 hPa East 1.8 km/h 3.7 km/h 88 % 0 mm
08:14 12.7 °C 10.7 °C 1025.6 hPa East 1.1 km/h 3.7 km/h 88 % 0 mm
08:19 12.7 °C 10.8 °C 1025.6 hPa East 2.3 km/h 4.8 km/h 88 % 0 mm
08:24 12.7 °C 10.8 °C 1025.6 hPa East 1 km/h 3.7 km/h 88 % 0 mm
08:29 12.8 °C 10.8 °C 1025.6 hPa East 0.8 km/h 3.7 km/h 88 % 0 mm
08:34 12.8 °C 10.8 °C 1025.6 hPa East 1.3 km/h 3.2 km/h 88 % 0 mm
08:39 12.8 °C 10.9 °C 1025.6 hPa SE 1.8 km/h 5.6 km/h 88 % 0 mm
08:44 12.8 °C 10.9 °C 1025.6 hPa East 1.9 km/h 5.6 km/h 88 % 0 mm
08:49 12.8 °C 10.9 °C 1025.6 hPa East 0.8 km/h 3.7 km/h 88 % 0 mm
08:54 12.9 °C 10.9 °C 1025.6 hPa ESE 1 km/h 4.8 km/h 88 % 0 mm
08:59 12.9 °C 10.9 °C 1025.3 hPa ESE 0.3 km/h 1.9 km/h 88 % 0 mm
09:04 12.9 °C 11 °C 1025.6 hPa East 2.1 km/h 3.7 km/h 88 % 0 mm
09:09 12.9 °C 11 °C 1025.3 hPa East 0.8 km/h 3.7 km/h 88 % 0 mm
09:14 12.9 °C 11.2 °C 1025.3 hPa SE 0.8 km/h 1.9 km/h 89 % 0 mm
09:19 13 °C 11.2 °C 1025.3 hPa SE 0.6 km/h 1.9 km/h 89 % 0 mm
09:24 13 °C 11.2 °C 1025.3 hPa ESE 1.3 km/h 5.6 km/h 89 % 0 mm
09:29 13.1 °C 11.3 °C 1025.3 hPa Calm   3.7 km/h 89 % 0 mm
09:34 13.1 °C 11.3 °C 1024.9 hPa East 1.8 km/h 3.7 km/h 89 % 0 mm
09:39 13.1 °C 11.3 °C 1024.9 hPa East 1 km/h 3.7 km/h 89 % 0 mm
09:44 13.1 °C 11.5 °C 1024.9 hPa Calm   1.9 km/h 90 % 0 mm
09:50 13.2 °C 11.6 °C 1025.3 hPa ENE 0.8 km/h 5.6 km/h 90 % 0 mm
09:55 13.2 °C 11.4 °C 1025.3 hPa ESE 2.3 km/h 3.7 km/h 89 % 0 mm
10:00 13.3 °C 11.7 °C 1024.9 hPa SE 0.5 km/h 1.9 km/h 90 % 0 mm
10:05 13.4 °C 11.8 °C 1024.9 hPa East 1.1 km/h 3.7 km/h 90 % 0 mm
10:10 13.6 °C 12.1 °C 1024.9 hPa SE 0.8 km/h 4.8 km/h 91 % 0 mm
10:15 13.6 °C 12 °C 1024.9 hPa Calm   1.9 km/h 90 % 0 mm
10:20 13.7 °C 12.1 °C 1024.9 hPa East 0.8 km/h 5.6 km/h 90 % 0 mm
10:25 13.8 °C 12.2 °C 1024.9 hPa East 0.5 km/h 1.9 km/h 90 % 0 mm
10:30 13.8 °C 12.2 °C 1024.6 hPa East 0.3 km/h 1.9 km/h 90 % 0 mm
10:35 13.8 °C 12.2 °C 1024.6 hPa SE 0.5 km/h 3.7 km/h 90 % 0 mm
10:45 13.8 °C 12.2 °C 1024.6 hPa SE 0.2 km/h 1.6 km/h 90 % 0 mm
10:50 13.9 °C 12.3 °C 1024.6 hPa ESE 0.8 km/h 4.8 km/h 90 % 0 mm
10:55 13.9 °C 12.4 °C 1024.6 hPa Calm   1.9 km/h 91 % 0 mm
11:00 13.9 °C 12.3 °C 1024.3 hPa Calm     90 % 0 mm
11:05 13.9 °C 12.5 °C 1024.3 hPa ENE 0.3 km/h 1.9 km/h 91 % 0 mm
11:10 13.9 °C 12.5 °C 1024.3 hPa SSE 1.6 km/h 3.7 km/h 91 % 0 mm
11:15 14 °C 12.6 °C 1023.9 hPa Calm     91 % 0 mm
11:20 14 °C 12.6 °C 1023.9 hPa Calm     91 % 0 mm
11:25 14 °C 12.6 °C 1023.6 hPa Calm     91 % 0 mm
11:30 14.1 °C 12.6 °C 1023.6 hPa Calm     91 % 0 mm
11:35 14.2 °C 12.9 °C 1023.6 hPa SE 0.5 km/h 1.9 km/h 92 % 0 mm
11:40 14.2 °C 12.9 °C 1023.6 hPa SE 0.2 km/h   92 % 0 mm
11:45 14.3 °C 13 °C 1023.2 hPa Calm     92 % 0 mm
11:50 14.3 °C 13.1 °C 1023.2 hPa SE 0.3 km/h 1.9 km/h 92 % 0 mm
11:55 14.4 °C 13.2 °C 1023.2 hPa SE 0.2 km/h 1.9 km/h 92 % 0 mm
12:01 14.5 °C 13.2 °C 1022.9 hPa SE 0.3 km/h 3.7 km/h 92 % 0 mm
12:06 14.6 °C 13.3 °C 1022.9 hPa SE 0.2 km/h 1.9 km/h 92 % 0 mm
12:11 14.6 °C 13.5 °C 1022.9 hPa SE 1.9 km/h 7.4 km/h 93 % 0 mm
12:16 14.7 °C 13.6 °C 1022.9 hPa SE 0.6 km/h 1.9 km/h 93 % 0 mm
12:21 14.7 °C 13.6 °C 1022.9 hPa SE 0.2 km/h 1.9 km/h 93 % 0 mm
12:26 14.7 °C 13.6 °C 1022.9 hPa SE 0.6 km/h 3.7 km/h 93 % 0 mm
12:31 14.7 °C 13.6 °C 1022.9 hPa SE 0.3 km/h 1.9 km/h 93 % 0 mm
12:36 14.8 °C 13.7 °C 1022.6 hPa SE 0.6 km/h 3.7 km/h 93 % 0 mm
12:41 14.8 °C 13.7 °C 1022.6 hPa SE 0.3 km/h 1.9 km/h 93 % 0 mm
12:46 14.8 °C 13.7 °C 1022.6 hPa SSE 0.3 km/h 1.9 km/h 93 % 0 mm
12:51 14.8 °C 13.7 °C 1022.2 hPa Calm   1.6 km/h 93 % 0 mm
12:56 14.9 °C 13.8 °C 1022.2 hPa Calm   1.9 km/h 93 % 0 mm
13:01 14.9 °C 13.8 °C 1022.2 hPa Calm   1.9 km/h 93 % 0 mm
13:06 14.9 °C 13.8 °C 1022.2 hPa SSE 0.2 km/h 1.9 km/h 93 % 0 mm
13:11 14.9 °C 13.8 °C 1022.2 hPa Calm     93 % 0 mm
13:16 14.9 °C 13.8 °C 1022.2 hPa Calm     93 % 0 mm
13:21 14.9 °C 13.8 °C 1022.2 hPa Calm     93 % 0 mm
13:26 14.9 °C 13.8 °C 1021.9 hPa Calm     93 % 0 mm
13:31 15 °C 14.1 °C 1021.9 hPa Calm     94 % 0 mm
13:36 15 °C 14.1 °C 1021.9 hPa Calm   1.9 km/h 94 % 0 mm
13:41 15 °C 14.1 °C 1021.9 hPa Calm     94 % 0 mm
13:46 15.1 °C 14.1 °C 1021.6 hPa Calm   1.9 km/h 94 % 0 mm
13:51 15.2 °C 14.2 °C 1021.2 hPa Calm     94 % 0 mm
13:56 15.2 °C 14.2 °C 1021.2 hPa SSE 1.4 km/h 1.9 km/h 94 % 0 mm
14:05 15.2 °C 14.4 °C 1021.2 hPa Calm     95 % 0 mm
14:10 15.2 °C 14.4 °C 1021.2 hPa Calm     95 % 0 mm
14:15 15.3 °C 14.6 °C 1021.2 hPa Calm     95 % 0 mm
14:20 15.3 °C 14.6 °C 1021.2 hPa Calm     95 % 0 mm
14:25 15.3 °C 14.6 °C 1021.2 hPa ESE 1 km/h 1.9 km/h 95 % 0 mm
14:30 15.3 °C 14.6 °C 1021.2 hPa ENE 1.6 km/h 3.7 km/h 95 % 0 mm
14:35 15.3 °C 14.5 °C 1017.5 hPa ENE 2.7 km/h 5.6 km/h 95 % 0 mm
14:40 15.3 °C 14.5 °C 1016.8 hPa ENE 2.1 km/h 4.8 km/h 95 % 0 mm
14:46 15.2 °C 14.4 °C 1021.2 hPa ENE 1 km/h 1.9 km/h 95 % 0 mm
14:51 15.2 °C 14.4 °C 1016.5 hPa Calm   4.8 km/h 95 % 0 mm
14:56 15.2 °C 14.4 °C 1015.1 hPa Calm     95 % 0 mm
15:01 15.2 °C 14.4 °C 1015.1 hPa ENE 0.2 km/h   95 % 0 mm
15:06 15.2 °C 14.4 °C 1014.8 hPa ENE 0.2 km/h 1.6 km/h 95 % 0 mm
15:11 15.2 °C 14.4 °C 1021.6 hPa Calm   3.2 km/h 95 % 0 mm
15:16 15.2 °C 14.4 °C 1020.9 hPa Calm   1.6 km/h 95 % 0 mm
15:21 15.2 °C 14.4 °C 1020.9 hPa Calm     95 % 0 mm
15:26 15.2 °C 14.4 °C 1014.1 hPa Calm     95 % 0.25 mm
15:31 15.2 °C 14.4 °C 1013.8 hPa Calm     95 % 0.25 mm
15:36 15.2 °C 14.4 °C 1013.8 hPa Calm     95 % 0.25 mm
15:41 15.3 °C 14.7 °C 1013.4 hPa Calm     96 % 0.25 mm
15:46 15.3 °C 14.7 °C 1014.8 hPa Calm   1.9 km/h 96 % 0.25 mm
15:51 15.3 °C 14.7 °C 1020.5 hPa Calm     96 % 0.25 mm
15:56 15.3 °C 14.7 °C 1020.5 hPa Calm     96 % 0.25 mm
16:01 15.3 °C 14.7 °C 1020.5 hPa Calm     96 % 0.25 mm
16:06 15.3 °C 14.7 °C 1014.8 hPa Calm     96 % 0.25 mm
16:11 15.3 °C 14.7 °C 1020.5 hPa ENE 0.2 km/h 3.2 km/h 96 % 0.25 mm
16:14 15.3 °C 14.7 °C 1020.5 hPa SE 0.5 km/h 5.6 km/h 96 % 0 mm
16:18 15.3 °C 14.7 °C 1020.5 hPa SE 3.7 km/h 9.3 km/h 96 % 0 mm
16:23 15.3 °C 14.7 °C 1020.5 hPa SSE 3.2 km/h 7.4 km/h 96 % 0 mm
16:28 15.4 °C 14.8 °C 1020.2 hPa SSE 3.7 km/h 14.8 km/h 96 % 0 mm
16:33 15.4 °C 14.8 °C 1016.1 hPa SE 1.9 km/h 13 km/h 96 % 0 mm
16:38 15.5 °C 14.9 °C 1020.2 hPa Calm     96 % 0 mm
16:43 15.5 °C 15 °C 1016.8 hPa East 0.6 km/h 3.7 km/h 97 % 0 mm
16:48 15.6 °C 15.1 °C 1017.2 hPa SE 0.5 km/h 3.7 km/h 97 % 0 mm
16:53 15.6 °C 15.1 °C 1016.8 hPa SE 4.8 km/h 9.7 km/h 97 % 0 mm
16:58 15.6 °C 15.1 °C 1020.5 hPa SSE 4.2 km/h 9.3 km/h 97 % 0 mm
17:03 15.6 °C 15.1 °C 1020.2 hPa SE 1.1 km/h 5.6 km/h 97 % 0 mm
17:08 15.6 °C 15.1 °C 1017.5 hPa Calm   1.9 km/h 97 % 0 mm
17:13 15.6 °C 15.1 °C 1019.9 hPa SE 1.1 km/h 1.9 km/h 97 % 0 mm
17:18 15.6 °C 15.1 °C 1019.9 hPa SE 2.6 km/h 5.6 km/h 97 % 0 mm
17:23 15.6 °C 15.1 °C 1020.2 hPa SE 0.3 km/h 4.8 km/h 97 % 0 mm
17:28 15.6 °C 15.1 °C 1015.5 hPa SE 0.2 km/h 3.7 km/h 97 % 0 mm
17:33 15.6 °C 15.1 °C 1019.9 hPa SE 0.3 km/h 1.9 km/h 97 % 0 mm
17:38 15.6 °C 15.1 °C 1019.9 hPa SE 1.4 km/h 5.6 km/h 97 % 0 mm
17:43 15.5 °C 15 °C 1019.5 hPa SE 3.9 km/h 5.6 km/h 97 % 0 mm
17:48 15.5 °C 14.9 °C 1019.5 hPa SSE 3.4 km/h 7.4 km/h 96 % 0 mm
17:53 15.4 °C 14.8 °C 1019.2 hPa Calm   1.9 km/h 96 % 0 mm
17:59 15.4 °C 14.8 °C 1019.2 hPa Calm   1.6 km/h 96 % 0 mm
18:04 15.4 °C 14.8 °C 1019.2 hPa Calm     96 % 0 mm
18:09 15.4 °C 14.8 °C 1019.2 hPa Calm     96 % 0 mm
18:14 15.4 °C 14.8 °C 1018.8 hPa Calm   3.7 km/h 96 % 0 mm
18:19 15.4 °C 14.8 °C 1019.2 hPa SSE 0.2 km/h 3.7 km/h 96 % 0 mm
18:24 15.3 °C 14.7 °C 1018.8 hPa Calm   1.9 km/h 96 % 0 mm
18:29 15.3 °C 14.8 °C 1018.8 hPa SSE 0.5 km/h 1.9 km/h 97 % 0 mm
18:34 15.4 °C 14.9 °C 1018.8 hPa SE 2.9 km/h 5.6 km/h 97 % 0 mm
18:39 15.4 °C 14.9 °C 1018.8 hPa SSE 0.6 km/h 3.7 km/h 97 % 0.25 mm
18:44 15.4 °C 14.9 °C 1018.8 hPa SE 1 km/h 3.7 km/h 97 % 0.25 mm
18:46 15.3 °C 14.8 °C 1018.5 hPa SE 3.7 km/h 5.6 km/h 97 % 0.25 mm
18:51 15.3 °C 14.8 °C 1018.5 hPa SE 1.8 km/h 3.7 km/h 97 % 0.25 mm
18:56 15.3 °C 14.8 °C 1018.2 hPa SE 3.2 km/h 8 km/h 97 % 0.25 mm
19:01 15.3 °C 14.8 °C 1018.2 hPa SE 1.3 km/h 3.7 km/h 97 % 0.25 mm
19:06 15.3 °C 14.8 °C 1017.8 hPa SE 1 km/h 5.6 km/h 97 % 0.25 mm
19:12 15.3 °C 14.8 °C 1017.8 hPa SE 1.9 km/h   97 % 0.25 mm
19:17 15.3 °C 14.8 °C 1018.5 hPa SE 1.1 km/h 3.7 km/h 97 % 0.25 mm
19:22 15.3 °C 14.8 °C 1017.8 hPa Calm   1.9 km/h 97 % 0.25 mm
19:27 15.3 °C 14.8 °C 1017.8 hPa Calm     97 % 0.25 mm
19:32 15.3 °C 14.8 °C 1018.2 hPa Calm     97 % 0.25 mm
19:37 15.3 °C 14.8 °C 1017.8 hPa SE 0.2 km/h 1.9 km/h 97 % 0.25 mm
19:42 15.4 °C 14.9 °C 1018.2 hPa Calm     97 % 0 mm
19:47 15.4 °C 14.9 °C 1018.2 hPa SE 0.5 km/h 3.7 km/h 97 % 0 mm
19:52 15.5 °C 15 °C 1018.2 hPa Calm     97 % 0 mm
19:57 15.5 °C 15 °C 1017.5 hPa Calm     97 % 0 mm
20:02 15.5 °C 15 °C 1017.8 hPa Calm     97 % 0 mm
20:07 15.6 °C 15.1 °C 1018.2 hPa Calm     97 % 0 mm
20:12 15.6 °C 15.1 °C 1017.8 hPa Calm     97 % 0 mm
20:17 15.6 °C 15.1 °C 1017.8 hPa Calm     97 % 0 mm
20:22 15.6 °C 15.1 °C 1017.8 hPa Calm     97 % 0 mm
20:27 15.6 °C 15.1 °C 1017.8 hPa Calm     97 % 0 mm
20:32 15.6 °C 15.1 °C 1017.8 hPa Calm     97 % 0 mm
20:37 15.6 °C 15.1 °C 1017.8 hPa Calm     97 % 0 mm
20:42 15.6 °C 15.1 °C 1017.8 hPa Calm     97 % 0 mm
20:47 15.6 °C 15.1 °C 1017.5 hPa Calm     97 % 0 mm
20:52 15.6 °C 15.1 °C 1017.8 hPa Calm     97 % 0 mm
20:57 15.7 °C 15.2 °C 1018.2 hPa Calm     97 % 0 mm
21:02 15.7 °C 15.2 °C 1018.5 hPa Calm     97 % 0 mm
21:07 15.7 °C 15.2 °C 1017.8 hPa Calm     97 % 0 mm
21:12 15.7 °C 15.2 °C 1017.5 hPa Calm     97 % 0 mm
21:17 15.7 °C 15.2 °C 1017.8 hPa Calm     97 % 0 mm
21:22 15.7 °C 15.2 °C 1017.8 hPa Calm     97 % 0 mm
21:27 15.7 °C 15.2 °C 1017.8 hPa Calm     97 % 0 mm
21:32 15.7 °C 15.2 °C 1017.5 hPa Calm     97 % 0 mm
21:37 15.7 °C 15.2 °C 1017.5 hPa Calm     97 % 0 mm
21:42 15.7 °C 15.2 °C 1017.2 hPa Calm     97 % 0 mm
21:47 15.7 °C 15.2 °C 1017.5 hPa Calm     97 % 0.25 mm
21:53 15.7 °C 15.2 °C 1017.2 hPa Calm     97 % 0.25 mm
21:58 15.7 °C 15.2 °C 1017.2 hPa Calm     97 % 0.25 mm
22:03 15.7 °C 15.2 °C 1017.2 hPa Calm     97 % 0.25 mm
22:08 15.7 °C 15.2 °C 1017.5 hPa Calm     97 % 0.25 mm
22:13 15.7 °C 15.2 °C 1017.2 hPa Calm     97 % 0.25 mm
22:19 15.7 °C 15.2 °C 1017.2 hPa Calm     97 % 0.25 mm
22:22 15.6 °C 15.1 °C 1017.2 hPa Calm     97 % 0.25 mm
22:23 15.6 °C 15.1 °C 1017.5 hPa Calm     97 % 0.25 mm
22:24 15.6 °C 15.1 °C 1009.4 hPa Calm     97 % 0.25 mm
22:28 15.6 °C 15.1 °C 1008.7 hPa Calm     97 % 0.25 mm
22:34 15.6 °C 15.1 °C 1017.2 hPa Calm     97 % 0.25 mm
22:39 15.6 °C 15.1 °C 1017.5 hPa Calm     97 % 0.25 mm
22:44 15.6 °C 15.1 °C 1016.8 hPa Calm     97 % 0.25 mm
22:49 15.5 °C 15 °C 1016.8 hPa Calm     97 % 0 mm
22:54 15.4 °C 14.9 °C 1016.5 hPa Calm   1.9 km/h 97 % 0 mm
22:59 15.4 °C 14.9 °C 1016.5 hPa SE 0.2 km/h 1.9 km/h 97 % 0 mm
23:04 15.4 °C 14.9 °C 1017.2 hPa SE 1 km/h 3.7 km/h 97 % 0 mm
23:09 15.4 °C 14.9 °C 1016.5 hPa SSW 0.3 km/h 1.9 km/h 97 % 0 mm
23:14 15.5 °C 15 °C 1016.8 hPa WSW 2.4 km/h 7.4 km/h 97 % 0 mm
23:19 15.6 °C 15.1 °C 1016.5 hPa Calm   1.9 km/h 97 % 0 mm
23:24 15.6 °C 15.1 °C 1016.5 hPa Calm   1.9 km/h 97 % 0 mm
23:29 15.7 °C 15.2 °C 1016.5 hPa Calm     97 % 0 mm
23:34 15.7 °C 15.2 °C 1016.8 hPa WSW 0.2 km/h 3.7 km/h 97 % 0 mm
23:39 15.7 °C 15.2 °C 1016.5 hPa Calm     97 % 0 mm
23:44 15.7 °C 15.2 °C 1016.1 hPa Calm     97 % 0 mm
23:50 15.8 °C 15.3 °C 1016.5 hPa SW 0.3 km/h 1.9 km/h 97 % 0 mm
23:55 15.8 °C 15.3 °C 1016.1 hPa Calm   1.9 km/h 97 % 0 mm
23:57 15.8 °C 15.3 °C 1016.1 hPa SW 1.3 km/h 3.7 km/h 97 % 0 mm
Crab Meadow Weather
Compliments of Weather Underground - 3 mb

Script developed by  Jim McMurry - jmcmurry@mwt.net Adapted for the template by  Wim van der Kuil - Leuven-Template.eu

Astronomy: Neptune has at least 11 moons.